Time,TemperatureF,DewpointF,PressureIn,WindDirection,WindDirectionDegrees,WindSpeedMPH,WindSpeedGustMPH,Humidity,HourlyPrecipIn,Conditions,Clouds,dailyrainin,SoftwareType,DateUTC
2013-01-07 00:00:00,39.1,-4.8,29.74,WNW,298,2.0,2.0,15,0.00,,,0.00,Wunderground v.1.15,2013-01-07 07:00:00,
2013-01-07 00:10:00,39.2,-4.7,29.74,NW,304,1.0,1.0,15,0.00,,,0.00,Wunderground v.1.15,2013-01-07 07:10:00,
2013-01-07 00:15:00,39.2,-4.7,29.74,West,272,0.0,2.0,15,0.00,,,0.00,Wunderground v.1.15,2013-01-07 07:15:00,
2013-01-07 00:25:00,38.9,-4.9,29.74,WNW,284,1.0,1.0,15,0.00,,,0.00,Wunderground v.1.15,2013-01-07 07:25:00,
2013-01-07 00:30:00,38.9,-4.9,29.74,SSE,150,1.0,1.0,15,0.00,,,0.00,Wunderground v.1.15,2013-01-07 07:30:00,
2013-01-07 00:40:00,38.9,-3.6,29.74,South,186,1.0,1.0,16,0.00,,,0.00,Wunderground v.1.15,2013-01-07 07:40:00,
2013-01-07 00:45:00,38.6,-5.2,29.74,SSW,198,1.0,1.0,15,0.00,,,0.00,Wunderground v.1.15,2013-01-07 07:45:00,
2013-01-07 00:55:00,38.9,-3.6,29.74,NW,305,2.0,3.0,16,0.00,,,0.00,Wunderground v.1.15,2013-01-07 07:55:00,
2013-01-07 01:00:00,38.9,-4.9,29.74,South,176,2.0,10.0,15,0.00,,,0.00,Wunderground v.1.15,2013-01-07 08:00:00,
2013-01-07 01:10:00,38.5,-5.2,29.74,South,176,2.0,5.0,15,0.00,,,0.00,Wunderground v.1.15,2013-01-07 08:10:00,
2013-01-07 01:15:00,38.5,-3.9,29.74,South,189,2.0,5.0,16,0.00,,,0.00,Wunderground v.1.15,2013-01-07 08:15:00,
2013-01-07 01:25:00,38.3,-5.4,29.74,SSW,203,2.0,11.0,15,0.00,,,0.00,Wunderground v.1.15,2013-01-07 08:25:00,
2013-01-07 01:30:00,38.5,-5.2,29.74,SSW,209,3.0,3.0,15,0.00,,,0.00,Wunderground v.1.15,2013-01-07 08:30:00,
2013-01-07 01:40:00,38.5,-6.7,29.74,South,182,3.0,3.0,14,0.00,,,0.00,Wunderground v.1.15,2013-01-07 08:40:00,
2013-01-07 01:45:00,38.3,-6.8,29.72,WSW,246,2.0,3.0,14,0.00,,,0.00,Wunderground v.1.15,2013-01-07 08:45:00,
2013-01-07 01:55:00,38.2,-6.9,29.72,West,263,1.0,2.0,14,0.00,,,0.00,Wunderground v.1.15,2013-01-07 08:55:00,
2013-01-07 02:05:00,38.0,-7.1,29.74,North,3,1.0,3.0,14,0.00,,,0.00,Wunderground v.1.15,2013-01-07 09:05:00,
2013-01-07 02:10:00,38.0,-7.1,29.74,West,278,1.0,1.0,14,0.00,,,0.00,Wunderground v.1.15,2013-01-07 09:10:00,
2013-01-07 02:15:00,38.2,-6.9,29.73,NW,315,1.0,1.0,14,0.00,,,0.00,Wunderground v.1.15,2013-01-07 09:15:00,
2013-01-07 02:25:00,38.3,-6.8,29.73,SSW,193,3.0,3.0,14,0.00,,,0.00,Wunderground v.1.15,2013-01-07 09:25:00,
2013-01-07 02:30:00,38.5,-8.2,29.73,WNW,289,4.0,8.0,13,0.00,,,0.00,Wunderground v.1.15,2013-01-07 09:30:00,
2013-01-07 02:40:00,38.6,-6.6,29.73,NW,305,5.0,5.0,14,0.00,,,0.00,Wunderground v.1.15,2013-01-07 09:40:00,
2013-01-07 02:45:00,38.5,-8.2,29.74,SSW,196,3.0,5.0,13,0.00,,,0.00,Wunderground v.1.15,2013-01-07 09:45:00,
2013-01-07 02:55:00,38.3,-8.4,29.74,SSW,199,3.0,3.0,13,0.00,,,0.00,Wunderground v.1.15,2013-01-07 09:55:00,
2013-01-07 03:00:00,38.3,-8.4,29.73,WNW,296,4.0,7.0,13,0.00,,,0.00,Wunderground v.1.15,2013-01-07 10:00:00,
2013-01-07 03:10:00,38.5,-8.2,29.73,SSW,212,3.0,3.0,13,0.00,,,0.00,Wunderground v.1.15,2013-01-07 10:10:00,
2013-01-07 03:15:00,38.3,-8.4,29.72,WNW,302,2.0,3.0,13,0.00,,,0.00,Wunderground v.1.15,2013-01-07 10:15:00,
2013-01-07 03:25:00,38.3,-8.4,29.72,WNW,302,2.0,6.0,13,0.00,,,0.00,Wunderground v.1.15,2013-01-07 10:25:00,
2013-01-07 03:30:00,38.3,-8.4,29.74,NW,316,2.0,2.0,13,0.00,,,0.00,Wunderground v.1.15,2013-01-07 10:30:00,
2013-01-07 03:40:00,38.2,-10.1,29.74,West,271,3.0,3.0,12,0.00,,,0.00,Wunderground v.1.15,2013-01-07 10:40:00,
2013-01-07 03:45:00,38.3,-8.4,29.73,WNW,289,6.0,6.0,13,0.00,,,0.00,Wunderground v.1.15,2013-01-07 10:45:00,
2013-01-07 03:55:00,38.2,-8.4,29.73,NW,308,4.0,5.0,13,0.00,,,0.00,Wunderground v.1.15,2013-01-07 10:55:00,
2013-01-07 04:00:00,38.0,-8.6,29.74,NW,312,4.0,4.0,13,0.00,,,0.00,Wunderground v.1.15,2013-01-07 11:00:00,
2013-01-07 04:05:00,38.0,-8.6,29.74,West,281,4.0,4.0,13,0.00,,,0.00,Wunderground v.1.15,2013-01-07 11:05:00,
2013-01-07 04:10:00,37.8,-8.8,29.74,West,280,3.0,7.0,13,0.00,,,0.00,Wunderground v.1.15,2013-01-07 11:10:00,
2013-01-07 04:20:00,37.8,-8.8,29.74,NNW,346,5.0,5.0,13,0.00,,,0.00,Wunderground v.1.15,2013-01-07 11:20:00,
2013-01-07 04:25:00,37.8,-8.8,29.74,WNW,289,4.0,8.0,13,0.00,,,0.00,Wunderground v.1.15,2013-01-07 11:25:00,
2013-01-07 04:30:00,37.6,-8.9,29.75,WNW,287,3.0,3.0,13,0.00,,,0.00,Wunderground v.1.15,2013-01-07 11:30:00,
2013-01-07 04:40:00,37.6,-8.9,29.75,WSW,258,2.0,2.0,13,0.00,,,0.00,Wunderground v.1.15,2013-01-07 11:40:00,
2013-01-07 04:45:00,37.6,-8.9,29.74,West,277,1.0,2.0,13,0.00,,,0.00,Wunderground v.1.15,2013-01-07 11:45:00,
2013-01-07 04:55:00,37.5,-9.0,29.74,WSW,239,0.0,1.0,13,0.00,,,0.00,Wunderground v.1.15,2013-01-07 11:55:00,
2013-01-07 05:00:00,37.8,-8.8,29.75,South,169,0.0,0.0,13,0.00,,,0.00,Wunderground v.1.15,2013-01-07 12:00:00,
2013-01-07 05:05:00,37.5,-7.5,29.75,South,185,0.0,0.0,14,0.00,,,0.00,Wunderground v.1.15,2013-01-07 12:05:00,
2013-01-07 05:10:00,36.9,-5.2,29.75,SSW,200,0.0,0.0,16,0.00,,,0.00,Wunderground v.1.15,2013-01-07 12:10:00,
2013-01-07 05:20:00,35.8,-4.9,29.78,SE,138,0.0,0.0,17,0.00,,,0.00,Wunderground v.1.15,2013-01-07 12:20:00,
2013-01-07 05:25:00,35.3,-6.5,29.78,WNW,284,0.0,0.0,16,0.00,,,0.00,Wunderground v.1.15,2013-01-07 12:25:00,
2013-01-07 05:30:00,34.6,-7.1,29.80,West,275,0.0,0.0,16,0.00,,,0.00,Wunderground v.1.15,2013-01-07 12:30:00,
2013-01-07 05:40:00,33.4,-4.5,29.80,South,182,0.0,0.0,19,0.00,,,0.00,Wunderground v.1.15,2013-01-07 12:40:00,
2013-01-07 05:45:00,32.9,-6.1,29.82,South,182,0.0,0.0,18,0.00,,,0.00,Wunderground v.1.15,2013-01-07 12:45:00,
2013-01-07 05:55:00,32.4,-5.4,29.82,South,182,0.0,0.0,19,0.00,,,0.00,Wunderground v.1.15,2013-01-07 12:55:00,
2013-01-07 06:00:00,31.8,-3.8,29.85,South,182,0.0,0.0,21,0.00,,,0.00,Wunderground v.1.15,2013-01-07 13:00:00,
2013-01-07 06:10:00,30.7,-1.9,29.85,South,182,0.0,0.0,24,0.00,,,0.00,Wunderground v.1.15,2013-01-07 13:10:00,
2013-01-07 06:15:00,30.1,-2.4,29.85,South,182,0.0,0.0,24,0.00,,,0.00,Wunderground v.1.15,2013-01-07 13:15:00,
2013-01-07 06:25:00,29.4,-1.3,29.85,South,182,0.0,0.0,26,0.00,,,0.00,Wunderground v.1.15,2013-01-07 13:25:00,
2013-01-07 06:30:00,28.7,-2.8,29.87,South,182,0.0,0.0,25,0.00,,,0.00,Wunderground v.1.15,2013-01-07 13:30:00,
2013-01-07 06:35:00,28.4,-0.6,29.87,South,182,0.0,0.0,28,0.00,,,0.00,Wunderground v.1.15,2013-01-07 13:35:00,
2013-01-07 06:40:00,28.2,-0.8,29.87,South,182,0.0,0.0,28,0.00,,,0.00,Wunderground v.1.15,2013-01-07 13:40:00,
2013-01-07 06:45:00,28.1,-0.9,29.89,South,185,0.0,0.0,28,0.00,,,0.00,Wunderground v.1.15,2013-01-07 13:45:00,
2013-01-07 06:55:00,28.4,-0.6,29.89,South,185,0.0,0.0,28,0.00,,,0.00,Wunderground v.1.15,2013-01-07 13:55:00,
2013-01-07 07:00:00,28.4,-0.6,29.90,South,185,0.0,0.0,28,0.00,,,0.00,Wunderground v.1.15,2013-01-07 14:00:00,
2013-01-07 07:10:00,27.2,-0.9,29.90,South,185,0.0,0.0,29,0.00,,,0.00,Wunderground v.1.15,2013-01-07 14:10:00,
2013-01-07 07:15:00,27.0,-2.6,29.90,South,185,0.0,0.0,27,0.00,,,0.00,Wunderground v.1.15,2013-01-07 14:15:00,
2013-01-07 07:25:00,27.3,-2.3,29.90,SSW,210,0.0,0.0,27,0.00,,,0.00,Wunderground v.1.15,2013-01-07 14:25:00,
2013-01-07 07:30:00,26.6,-3.0,29.91,SSW,210,0.0,0.0,27,0.00,,,0.00,Wunderground v.1.15,2013-01-07 14:30:00,
2013-01-07 07:35:00,25.8,-1.4,29.91,SSW,210,0.0,0.0,30,0.00,,,0.00,Wunderground v.1.15,2013-01-07 14:35:00,
2013-01-07 07:40:00,25.8,-2.9,29.91,SSW,210,0.0,0.0,28,0.00,,,0.00,Wunderground v.1.15,2013-01-07 14:40:00,
2013-01-07 07:50:00,26.3,-2.4,29.91,SSW,210,0.0,0.0,28,0.00,,,0.00,Wunderground v.1.15,2013-01-07 14:50:00,
2013-01-07 07:55:00,26.6,-3.0,29.91,SSW,210,0.0,0.0,27,0.00,,,0.00,Wunderground v.1.15,2013-01-07 14:55:00,
2013-01-07 08:00:00,26.9,-3.5,29.91,SSW,210,0.0,0.0,26,0.00,,,0.00,Wunderground v.1.15,2013-01-07 15:00:00,
2013-01-07 08:10:00,26.6,-3.0,29.91,SSW,210,0.0,0.0,27,0.00,,,0.00,Wunderground v.1.15,2013-01-07 15:10:00,
2013-01-07 08:15:00,26.1,-3.4,29.91,SSW,210,0.0,0.0,27,0.00,,,0.00,Wunderground v.1.15,2013-01-07 15:15:00,
2013-01-07 08:25:00,26.9,-2.7,29.91,SSW,210,0.0,0.0,27,0.00,,,0.00,Wunderground v.1.15,2013-01-07 15:25:00,
2013-01-07 08:30:00,27.9,-5.2,29.90,South,182,0.0,0.0,23,0.00,,,0.00,Wunderground v.1.15,2013-01-07 15:30:00,
2013-01-07 08:40:00,29.7,-7.6,29.90,South,182,0.0,0.0,19,0.00,,,0.00,Wunderground v.1.15,2013-01-07 15:40:00,
2013-01-07 08:45:00,30.7,-5.7,29.88,South,182,0.0,0.0,20,0.00,,,0.00,Wunderground v.1.15,2013-01-07 15:45:00,
2013-01-07 08:55:00,30.0,-3.4,29.88,South,182,0.0,0.0,23,0.00,,,0.00,Wunderground v.1.15,2013-01-07 15:55:00,
2013-01-07 09:05:00,32.2,-10.4,29.88,SW,216,0.0,0.0,15,0.00,,,0.00,Wunderground v.1.15,2013-01-07 16:05:00,
2013-01-07 09:10:00,33.7,-9.2,29.88,SSW,195,0.0,0.0,15,0.00,,,0.00,Wunderground v.1.15,2013-01-07 16:10:00,
2013-01-07 09:15:00,34.7,-9.7,29.84,West,260,0.0,0.0,14,0.00,,,0.00,Wunderground v.1.15,2013-01-07 16:15:00,
2013-01-07 09:25:00,35.8,-10.4,29.84,SSE,157,0.0,0.0,13,0.00,,,0.00,Wunderground v.1.15,2013-01-07 16:25:00,
2013-01-07 09:30:00,36.2,-10.0,29.83,NW,304,0.0,0.0,13,0.00,,,0.00,Wunderground v.1.15,2013-01-07 16:30:00,
2013-01-07 09:40:00,36.5,-6.9,29.83,West,280,0.0,0.0,15,0.00,,,0.00,Wunderground v.1.15,2013-01-07 16:40:00,
2013-01-07 09:45:00,36.5,-9.8,29.82,West,280,0.0,0.0,13,0.00,,,0.00,Wunderground v.1.15,2013-01-07 16:45:00,
2013-01-07 09:55:00,36.6,-6.8,29.82,North,11,1.0,1.0,15,0.00,,,0.00,Wunderground v.1.15,2013-01-07 16:55:00,
2013-01-07 10:00:00,36.9,-11.1,29.82,North,11,0.0,0.0,12,0.00,,,0.00,Wunderground v.1.15,2013-01-07 17:00:00,
2013-01-07 10:10:00,37.5,-10.6,29.82,WNW,291,0.0,0.0,12,0.00,,,0.00,Wunderground v.1.15,2013-01-07 17:10:00,
2013-01-07 10:15:00,37.6,-8.9,29.83,WNW,294,0.0,0.0,13,0.00,,,0.00,Wunderground v.1.15,2013-01-07 17:15:00,
2013-01-07 10:25:00,38.3,-6.8,29.83,WSW,246,1.0,1.0,14,0.00,,,0.00,Wunderground v.1.15,2013-01-07 17:25:00,
2013-01-07 10:30:00,38.3,-5.4,29.82,SSW,212,0.0,0.0,15,0.00,,,0.00,Wunderground v.1.15,2013-01-07 17:30:00,
2013-01-07 10:40:00,38.9,-6.4,29.82,SSE,158,0.0,1.0,14,0.00,,,0.00,Wunderground v.1.15,2013-01-07 17:40:00,
2013-01-07 10:45:00,39.6,-10.7,29.81,West,280,1.0,1.0,11,0.00,,,0.00,Wunderground v.1.15,2013-01-07 17:45:00,
2013-01-07 10:55:00,41.3,-11.3,29.81,WSW,247,1.0,2.0,10,0.00,,,0.00,Wunderground v.1.15,2013-01-07 17:55:00,
2013-01-07 11:00:00,41.9,-10.9,29.77,WNW,288,2.0,5.0,10,0.00,,,0.00,Wunderground v.1.15,2013-01-07 18:00:00,
2013-01-07 11:05:00,42.3,-8.6,29.77,North,359,3.0,5.0,11,0.00,,,0.00,Wunderground v.1.15,2013-01-07 18:05:00,
2013-01-07 11:15:00,42.2,-12.7,29.77,SW,232,1.0,3.0,9,0.00,,,0.00,Wunderground v.1.15,2013-01-07 18:15:00,
2013-01-07 11:25:00,42.1,-17.8,29.77,West,274,1.0,2.0,7,0.00,,,0.00,Wunderground v.1.15,2013-01-07 18:25:00,
2013-01-07 11:30:00,42.2,-12.7,29.78,WNW,289,1.0,1.0,9,0.00,,,0.00,Wunderground v.1.15,2013-01-07 18:30:00,
2013-01-07 11:40:00,42.9,-12.2,29.78,WNW,288,0.0,0.0,9,0.00,,,0.00,Wunderground v.1.15,2013-01-07 18:40:00,
2013-01-07 11:45:00,43.2,-17.0,29.75,NW,316,0.0,2.0,7,0.00,,,0.00,Wunderground v.1.15,2013-01-07 18:45:00,
2013-01-07 11:55:00,43.8,-16.5,29.75,NNE,13,1.0,1.0,7,0.00,,,0.00,Wunderground v.1.15,2013-01-07 18:55:00,
2013-01-07 12:00:00,43.9,-16.4,29.75,NW,313,2.0,2.0,7,0.00,,,0.00,Wunderground v.1.15,2013-01-07 19:00:00,
2013-01-07 12:05:00,44.1,-16.3,29.75,South,189,2.0,2.0,7,0.00,,,0.00,Wunderground v.1.15,2013-01-07 19:05:00,
2013-01-07 12:15:00,43.8,-16.5,29.73,West,268,3.0,8.0,7,0.00,,,0.00,Wunderground v.1.15,2013-01-07 19:15:00,
2013-01-07 12:25:00,43.9,-19.4,29.73,WNW,282,2.0,6.0,6,0.00,,,0.00,Wunderground v.1.15,2013-01-07 19:25:00,
2013-01-07 12:30:00,44.1,-19.3,29.71,WNW,285,2.0,10.0,6,0.00,,,0.00,Wunderground v.1.15,2013-01-07 19:30:00,
2013-01-07 12:40:00,44.6,-15.9,29.71,WNW,295,3.0,7.0,7,0.00,,,0.00,Wunderground v.1.15,2013-01-07 19:40:00,
2013-01-07 12:45:00,44.5,-13.3,29.69,WNW,282,3.0,7.0,8,0.00,,,0.00,Wunderground v.1.15,2013-01-07 19:45:00,
2013-01-07 12:55:00,45.1,-15.5,29.69,WNW,287,2.0,7.0,7,0.00,,,0.00,Wunderground v.1.15,2013-01-07 19:55:00,
2013-01-07 13:00:00,45.1,-12.9,29.68,WNW,294,4.0,4.0,8,0.00,,,0.00,Wunderground v.1.15,2013-01-07 20:00:00,
2013-01-07 13:10:00,44.9,-15.7,29.68,West,275,3.0,3.0,7,0.00,,,0.00,Wunderground v.1.15,2013-01-07 20:10:00,
2013-01-07 13:15:00,44.8,-13.1,29.68,West,267,2.0,6.0,8,0.00,,,0.00,Wunderground v.1.15,2013-01-07 20:15:00,
2013-01-07 13:20:00,44.5,-13.3,29.68,South,176,3.0,3.0,8,0.00,,,0.00,Wunderground v.1.15,2013-01-07 20:20:00,
2013-01-07 13:25:00,44.3,-11.1,29.68,WNW,294,2.0,3.0,9,0.00,,,0.00,Wunderground v.1.15,2013-01-07 20:25:00,
2013-01-07 13:30:00,44.1,-13.6,29.69,WNW,288,4.0,4.0,8,0.00,,,0.00,Wunderground v.1.15,2013-01-07 20:30:00,
2013-01-07 13:40:00,43.8,-13.9,29.69,WNW,289,2.0,3.0,8,0.00,,,0.00,Wunderground v.1.15,2013-01-07 20:40:00,
2013-01-07 13:45:00,43.9,-11.4,29.69,SSW,208,2.0,3.0,9,0.00,,,0.00,Wunderground v.1.15,2013-01-07 20:45:00,
2013-01-07 13:55:00,44.2,-11.2,29.69,WNW,292,2.0,13.0,9,0.00,,,0.00,Wunderground v.1.15,2013-01-07 20:55:00,
2013-01-07 14:00:00,44.3,-11.1,29.69,WNW,287,2.0,7.0,9,0.00,,,0.00,Wunderground v.1.15,2013-01-07 21:00:00,
2013-01-07 14:10:00,44.3,-11.1,29.69,WNW,291,3.0,5.0,9,0.00,,,0.00,Wunderground v.1.15,2013-01-07 21:10:00,
2013-01-07 14:15:00,44.5,-11.0,29.70,West,275,3.0,5.0,9,0.00,,,0.00,Wunderground v.1.15,2013-01-07 21:15:00,
2013-01-07 14:25:00,44.5,-11.0,29.70,South,179,1.0,4.0,9,0.00,,,0.00,Wunderground v.1.15,2013-01-07 21:25:00,
2013-01-07 14:30:00,44.2,-13.6,29.68,North,356,3.0,3.0,8,0.00,,,0.00,Wunderground v.1.15,2013-01-07 21:30:00,
2013-01-07 14:40:00,43.5,-11.7,29.68,SSW,200,2.0,2.0,9,0.00,,,0.00,Wunderground v.1.15,2013-01-07 21:40:00,
2013-01-07 14:50:00,42.9,-10.1,29.69,SSW,195,2.0,2.0,10,0.00,,,0.00,Wunderground v.1.15,2013-01-07 21:50:00,
2013-01-07 14:55:00,42.8,-10.2,29.69,NW,318,2.0,2.0,10,0.00,,,0.00,Wunderground v.1.15,2013-01-07 21:55:00,
2013-01-07 15:00:00,42.8,-8.2,29.69,WNW,295,1.0,1.0,11,0.00,,,0.00,Wunderground v.1.15,2013-01-07 22:00:00,
2013-01-07 15:10:00,42.8,-10.2,29.69,SSW,210,1.0,1.0,10,0.00,,,0.00,Wunderground v.1.15,2013-01-07 22:10:00,
2013-01-07 15:15:00,42.6,-8.4,29.69,NW,309,2.0,2.0,11,0.00,,,0.00,Wunderground v.1.15,2013-01-07 22:15:00,
2013-01-07 15:25:00,42.5,-10.4,29.69,NNW,337,1.0,2.0,10,0.00,,,0.00,Wunderground v.1.15,2013-01-07 22:25:00,
2013-01-07 15:30:00,42.3,-10.5,29.71,WNW,291,1.0,1.0,10,0.00,,,0.00,Wunderground v.1.15,2013-01-07 22:30:00,
2013-01-07 15:40:00,42.1,-8.8,29.71,West,272,1.0,1.0,11,0.00,,,0.00,Wunderground v.1.15,2013-01-07 22:40:00,
2013-01-07 15:45:00,41.9,-10.9,29.71,ESE,121,1.0,1.0,10,0.00,,,0.00,Wunderground v.1.15,2013-01-07 22:45:00,
2013-01-07 15:55:00,41.3,-9.4,29.71,WSW,254,1.0,1.0,11,0.00,,,0.00,Wunderground v.1.15,2013-01-07 22:55:00,
2013-01-07 16:05:00,40.9,-11.6,29.73,WNW,291,1.0,1.0,10,0.00,,,0.00,Wunderground v.1.15,2013-01-07 23:05:00,
2013-01-07 16:15:00,40.5,-10.0,29.72,West,264,1.0,1.0,11,0.00,,,0.00,Wunderground v.1.15,2013-01-07 23:15:00,
2013-01-07 16:25:00,40.3,-12.1,29.72,WNW,291,1.0,2.0,10,0.00,,,0.00,Wunderground v.1.15,2013-01-07 23:25:00,
2013-01-07 16:30:00,40.2,-10.3,29.74,South,188,2.0,2.0,11,0.00,,,0.00,Wunderground v.1.15,2013-01-07 23:30:00,
2013-01-07 16:40:00,39.9,-10.5,29.74,NW,323,1.0,6.0,11,0.00,,,0.00,Wunderground v.1.15,2013-01-07 23:40:00,
2013-01-07 16:45:00,39.8,-12.5,29.73,West,261,1.0,6.0,10,0.00,,,0.00,Wunderground v.1.15,2013-01-07 23:45:00,
2013-01-07 16:55:00,39.1,-11.1,29.73,SW,232,0.0,1.0,11,0.00,,,0.00,Wunderground v.1.15,2013-01-07 23:55:00,
2013-01-07 17:00:00,39.1,-15.1,29.73,NNE,25,0.0,1.0,9,0.00,,,0.00,Wunderground v.1.15,2013-01-08 00:00:00,
2013-01-07 17:10:00,39.6,-14.7,29.73,NNW,329,1.0,2.0,9,0.00,,,0.00,Wunderground v.1.15,2013-01-08 00:10:00,
2013-01-07 17:20:00,39.8,-14.6,29.73,North,357,2.0,2.0,9,0.00,,,0.00,Wunderground v.1.15,2013-01-08 00:20:00,
2013-01-07 17:30:00,39.2,-13.0,29.78,WNW,288,1.0,1.0,10,0.00,,,0.00,Wunderground v.1.15,2013-01-08 00:30:00,
2013-01-07 17:40:00,38.9,-9.5,29.78,North,1,1.0,1.0,12,0.00,,,0.00,Wunderground v.1.15,2013-01-08 00:40:00,
2013-01-07 17:45:00,39.1,-11.1,29.80,WNW,294,1.0,1.0,11,0.00,,,0.00,Wunderground v.1.15,2013-01-08 00:45:00,
2013-01-07 17:55:00,38.8,-11.4,29.80,West,274,1.0,1.0,11,0.00,,,0.00,Wunderground v.1.15,2013-01-08 00:55:00,
2013-01-07 18:00:00,38.3,-10.0,29.79,WNW,285,0.0,0.0,12,0.00,,,0.00,Wunderground v.1.15,2013-01-08 01:00:00,
2013-01-07 18:10:00,37.8,-12.1,29.79,West,263,1.0,1.0,11,0.00,,,0.00,Wunderground v.1.15,2013-01-08 01:10:00,
2013-01-07 18:15:00,38.0,-10.2,29.79,WNW,301,1.0,1.0,12,0.00,,,0.00,Wunderground v.1.15,2013-01-08 01:15:00,
2013-01-07 18:25:00,37.8,-12.1,29.79,WNW,295,1.0,1.0,11,0.00,,,0.00,Wunderground v.1.15,2013-01-08 01:25:00,
2013-01-07 18:30:00,37.8,-10.4,29.82,West,264,1.0,1.0,12,0.00,,,0.00,Wunderground v.1.15,2013-01-08 01:30:00,
2013-01-07 18:40:00,37.3,-9.2,29.82,SSE,165,0.0,6.0,13,0.00,,,0.00,Wunderground v.1.15,2013-01-08 01:40:00,
2013-01-07 18:45:00,37.3,-12.5,29.81,SW,234,1.0,6.0,11,0.00,,,0.00,Wunderground v.1.15,2013-01-08 01:45:00,
2013-01-07 18:55:00,37.5,-9.0,29.81,SSW,209,1.0,1.0,13,0.00,,,0.00,Wunderground v.1.15,2013-01-08 01:55:00,
2013-01-07 19:00:00,35.9,-11.9,29.80,SW,229,1.0,1.0,12,0.00,,,0.00,Wunderground v.1.15,2013-01-08 02:00:00,
2013-01-07 19:05:00,36.6,-11.3,29.80,WSW,237,1.0,1.0,12,0.00,,,0.00,Wunderground v.1.15,2013-01-08 02:05:00,
2013-01-07 19:15:00,37.2,-9.2,29.80,South,175,1.0,1.0,13,0.00,,,0.00,Wunderground v.1.15,2013-01-08 02:15:00,
2013-01-07 19:25:00,38.0,-10.2,29.80,West,272,3.0,8.0,12,0.00,,,0.00,Wunderground v.1.15,2013-01-08 02:25:00,
2013-01-07 19:30:00,38.2,-10.1,29.80,South,175,3.0,3.0,12,0.00,,,0.00,Wunderground v.1.15,2013-01-08 02:30:00,
2013-01-07 19:40:00,37.9,-12.1,29.80,WNW,284,2.0,2.0,11,0.00,,,0.00,Wunderground v.1.15,2013-01-08 02:40:00,
2013-01-07 19:45:00,37.8,-10.4,29.79,NW,323,2.0,7.0,12,0.00,,,0.00,Wunderground v.1.15,2013-01-08 02:45:00,
2013-01-07 19:55:00,38.0,-12.0,29.79,SSE,158,5.0,5.0,11,0.00,,,0.00,Wunderground v.1.15,2013-01-08 02:55:00,
2013-01-07 20:00:00,37.8,-10.4,29.79,SSW,202,3.0,3.0,12,0.00,,,0.00,Wunderground v.1.15,2013-01-08 03:00:00,
2013-01-07 20:10:00,37.8,-10.4,29.79,NW,308,4.0,4.0,12,0.00,,,0.00,Wunderground v.1.15,2013-01-08 03:10:00,
2013-01-07 20:15:00,37.8,-12.1,29.78,SSE,167,3.0,4.0,11,0.00,,,0.00,Wunderground v.1.15,2013-01-08 03:15:00,
2013-01-07 20:25:00,37.8,-12.1,29.78,South,189,2.0,7.0,11,0.00,,,0.00,Wunderground v.1.15,2013-01-08 03:25:00,
2013-01-07 20:30:00,37.8,-12.1,29.71,WNW,287,2.0,2.0,11,0.00,,,0.00,Wunderground v.1.15,2013-01-08 03:30:00,
2013-01-07 20:40:00,38.2,-11.8,29.71,WNW,285,4.0,4.0,11,0.00,,,0.00,Wunderground v.1.15,2013-01-08 03:40:00,
2013-01-07 20:45:00,37.9,-10.3,29.70,WNW,285,3.0,7.0,12,0.00,,,0.00,Wunderground v.1.15,2013-01-08 03:45:00,
2013-01-07 20:55:00,38.0,-12.0,29.70,NW,311,3.0,6.0,11,0.00,,,0.00,Wunderground v.1.15,2013-01-08 03:55:00,
2013-01-07 21:00:00,37.9,-14.0,29.70,WNW,284,2.0,2.0,10,0.00,,,0.00,Wunderground v.1.15,2013-01-08 04:00:00,
2013-01-07 21:10:00,37.9,-12.1,29.70,SSW,205,2.0,2.0,11,0.00,,,0.00,Wunderground v.1.15,2013-01-08 04:10:00,
2013-01-07 21:15:00,37.9,-12.1,29.70,WNW,298,4.0,17.0,11,0.00,,,0.00,Wunderground v.1.15,2013-01-08 04:15:00,
2013-01-07 21:25:00,37.6,-12.3,29.70,ESE,103,3.0,9.0,11,0.00,,,0.00,Wunderground v.1.15,2013-01-08 04:25:00,
2013-01-07 21:30:00,37.3,-10.8,29.67,SSW,193,2.0,2.0,12,0.00,,,0.00,Wunderground v.1.15,2013-01-08 04:30:00,
2013-01-07 21:40:00,37.0,-12.8,29.67,SSW,192,2.0,2.0,11,0.00,,,0.00,Wunderground v.1.15,2013-01-08 04:40:00,
2013-01-07 21:45:00,37.0,-12.8,29.68,WSW,246,4.0,4.0,11,0.00,,,0.00,Wunderground v.1.15,2013-01-08 04:45:00,
2013-01-07 21:55:00,37.0,-12.8,29.68,SSE,151,4.0,4.0,11,0.00,,,0.00,Wunderground v.1.15,2013-01-08 04:55:00,
2013-01-07 22:00:00,37.0,-11.0,29.68,WNW,288,3.0,11.0,12,0.00,,,0.00,Wunderground v.1.15,2013-01-08 05:00:00,
2013-01-07 22:05:00,36.9,-11.1,29.68,West,274,4.0,11.0,12,0.00,,,0.00,Wunderground v.1.15,2013-01-08 05:05:00,
2013-01-07 22:10:00,36.9,-11.1,29.68,North,0,4.0,6.0,12,0.00,,,0.00,Wunderground v.1.15,2013-01-08 05:10:00,
2013-01-07 22:15:00,36.8,-11.2,29.68,WNW,294,5.0,6.0,12,0.00,,,0.00,Wunderground v.1.15,2013-01-08 05:15:00,
2013-01-07 22:25:00,36.6,-11.3,29.68,West,278,5.0,12.0,12,0.00,,,0.00,Wunderground v.1.15,2013-01-08 05:25:00,
2013-01-07 22:30:00,36.6,-11.3,29.65,NNW,337,4.0,4.0,12,0.00,,,0.00,Wunderground v.1.15,2013-01-08 05:30:00,
2013-01-07 22:35:00,36.6,-11.3,29.65,WNW,292,4.0,10.0,12,0.00,,,0.00,Wunderground v.1.15,2013-01-08 05:35:00,
2013-01-07 22:40:00,36.9,-12.9,29.65,North,357,5.0,5.0,11,0.00,,,0.00,Wunderground v.1.15,2013-01-08 05:40:00,
2013-01-07 22:50:00,36.6,-11.3,29.65,NW,322,4.0,4.0,12,0.00,,,0.00,Wunderground v.1.15,2013-01-08 05:50:00,
2013-01-07 22:55:00,36.3,-11.6,29.65,WNW,301,4.0,4.0,12,0.00,,,0.00,Wunderground v.1.15,2013-01-08 05:55:00,
2013-01-07 23:00:00,36.0,-11.8,29.66,North,349,3.0,3.0,12,0.00,,,0.00,Wunderground v.1.15,2013-01-08 06:00:00,
2013-01-07 23:10:00,35.8,-10.4,29.66,WNW,289,3.0,12.0,13,0.00,,,0.00,Wunderground v.1.15,2013-01-08 06:10:00,
2013-01-07 23:15:00,35.6,-10.5,29.66,NW,306,4.0,12.0,13,0.00,,,0.00,Wunderground v.1.15,2013-01-08 06:15:00,
2013-01-07 23:25:00,35.2,-9.3,29.66,WNW,294,2.0,10.0,14,0.00,,,0.00,Wunderground v.1.15,2013-01-08 06:25:00,
2013-01-07 23:30:00,35.0,-11.0,29.66,West,263,2.0,11.0,13,0.00,,,0.00,Wunderground v.1.15,2013-01-08 06:30:00,
2013-01-07 23:40:00,34.9,-11.1,29.66,NW,305,3.0,3.0,13,0.00,,,0.00,Wunderground v.1.15,2013-01-08 06:40:00,
2013-01-07 23:45:00,34.7,-8.3,29.65,WNW,294,3.0,3.0,15,0.00,,,0.00,Wunderground v.1.15,2013-01-08 06:45:00,
2013-01-07 23:55:00,35.0,-9.5,29.65,SSW,208,6.0,11.0,14,0.00,,,0.00,Wunderground v.1.15,2013-01-08 06:55:00,